createdAt,value
2019-03-31T00:01:10.864Z,6.60
2019-03-31T00:04:15.180Z,7.00
2019-03-31T00:07:19.552Z,5.57
2019-03-31T00:10:23.996Z,4.50
2019-03-31T00:13:28.472Z,3.53
2019-03-31T00:16:33.224Z,4.03
2019-03-31T00:19:37.566Z,4.03
2019-03-31T00:22:41.903Z,4.07
2019-03-31T00:25:51.409Z,3.23
2019-03-31T00:28:55.806Z,2.60
2019-03-31T00:32:00.167Z,1.60
2019-03-31T00:35:04.678Z,2.17
2019-03-31T00:38:09.014Z,1.77
2019-03-31T00:41:13.385Z,1.50
2019-03-31T00:44:17.804Z,1.20
2019-03-31T00:47:22.144Z,1.50
2019-03-31T00:50:26.463Z,1.30
2019-03-31T00:53:30.790Z,1.27
2019-03-31T00:56:35.129Z,1.63
2019-03-31T00:59:39.456Z,0.60
2019-03-31T01:02:43.873Z,1.20
2019-03-31T01:05:48.354Z,1.30
2019-03-31T01:08:53.044Z,1.63
2019-03-31T01:11:57.669Z,1.70
2019-03-31T01:15:02.459Z,1.03
2019-03-31T01:18:07.551Z,1.53
2019-03-31T01:21:12.950Z,1.10
2019-03-31T01:24:17.279Z,1.37
2019-03-31T01:27:21.868Z,1.40
2019-03-31T01:30:26.313Z,1.30
2019-03-31T01:33:30.860Z,1.03
2019-03-31T01:36:35.233Z,1.43
2019-03-31T01:39:39.577Z,1.57
2019-03-31T01:42:44.039Z,1.00
2019-03-31T01:45:48.459Z,1.33
2019-03-31T01:48:52.877Z,1.17
2019-03-31T01:51:57.221Z,1.13
2019-03-31T01:55:01.755Z,1.30
2019-03-31T01:58:06.118Z,1.03
2019-03-31T02:01:13.083Z,2.17
2019-03-31T02:04:17.413Z,1.20
2019-03-31T02:07:21.741Z,1.60
2019-03-31T02:10:26.054Z,1.47
2019-03-31T02:13:30.410Z,2.10
2019-03-31T02:16:34.819Z,1.67
2019-03-31T02:19:39.201Z,1.90
2019-03-31T02:22:43.616Z,1.80
2019-03-31T02:25:47.970Z,1.37
2019-03-31T02:28:52.341Z,2.40
2019-03-31T02:31:56.772Z,2.37
2019-03-31T02:35:01.153Z,2.20
2019-03-31T02:38:05.565Z,1.90
2019-03-31T02:41:09.941Z,2.87
2019-03-31T02:44:14.464Z,2.50
2019-03-31T02:47:18.824Z,2.23
2019-03-31T02:50:42.186Z,2.47
2019-03-31T02:53:46.676Z,2.40
2019-03-31T02:56:51.768Z,2.03
2019-03-31T02:59:58.624Z,2.20
2019-03-31T03:03:04.070Z,3.03
2019-03-31T03:06:11.967Z,2.53
2019-03-31T03:09:17.875Z,2.40
2019-03-31T03:12:25.592Z,2.33
2019-03-31T03:15:30.598Z,2.90
2019-03-31T03:18:35.009Z,2.70
2019-03-31T03:21:39.374Z,2.63
2019-03-31T03:24:43.698Z,2.00
2019-03-31T03:27:48.044Z,2.90
2019-03-31T03:30:52.485Z,2.00
2019-03-31T03:33:56.848Z,2.60
2019-03-31T03:37:01.180Z,4.17
2019-03-31T03:40:06.000Z,2.53
2019-03-31T03:43:10.335Z,2.20
2019-03-31T03:46:14.711Z,3.37
2019-03-31T03:49:19.249Z,2.30
2019-03-31T03:52:23.835Z,2.53
2019-03-31T03:55:28.173Z,3.23
2019-03-31T03:58:32.556Z,2.47
2019-03-31T04:01:36.909Z,2.90
2019-03-31T04:04:41.223Z,3.27
2019-03-31T04:07:45.591Z,3.77
2019-03-31T04:11:24.522Z,3.33
2019-03-31T04:14:28.910Z,3.00
2019-03-31T04:17:33.272Z,2.97
2019-03-31T04:20:39.490Z,3.30
2019-03-31T04:23:44.035Z,3.87
2019-03-31T04:26:48.357Z,3.10
2019-03-31T04:29:52.705Z,2.87
2019-03-31T04:32:57.051Z,2.63
2019-03-31T04:36:01.517Z,3.27
2019-03-31T04:39:07.557Z,3.13
2019-03-31T04:42:11.922Z,3.10
2019-03-31T04:45:16.429Z,3.27
2019-03-31T04:48:20.781Z,3.07
2019-03-31T04:51:25.226Z,2.90
2019-03-31T04:54:29.648Z,2.83
2019-03-31T04:57:33.969Z,2.30
2019-03-31T05:00:38.340Z,2.77
2019-03-31T05:03:42.772Z,2.67
2019-03-31T05:06:47.141Z,3.33
2019-03-31T05:09:51.527Z,3.83
2019-03-31T05:12:55.969Z,2.93
2019-03-31T05:16:00.426Z,2.30
2019-03-31T05:19:04.775Z,3.57
2019-03-31T05:22:09.169Z,2.83
2019-03-31T05:25:13.682Z,2.77
2019-03-31T05:28:18.041Z,2.63
2019-03-31T05:31:22.390Z,2.30
2019-03-31T05:34:26.929Z,2.87
2019-03-31T05:37:31.312Z,2.40
2019-03-31T05:40:35.783Z,2.60
2019-03-31T05:43:40.148Z,2.37
2019-03-31T05:46:44.524Z,2.10
2019-03-31T05:49:48.901Z,2.57
2019-03-31T05:52:53.264Z,1.37
2019-03-31T05:55:57.704Z,2.00
2019-03-31T05:59:02.068Z,2.27
2019-03-31T06:02:06.510Z,2.37
2019-03-31T06:05:11.075Z,2.10
2019-03-31T06:08:15.426Z,1.70
2019-03-31T06:11:19.867Z,2.00
2019-03-31T06:14:24.234Z,2.03
2019-03-31T06:17:28.602Z,3.23
2019-03-31T06:20:32.953Z,2.20
2019-03-31T06:23:37.415Z,2.20
2019-03-31T06:26:41.924Z,1.77
2019-03-31T06:29:46.282Z,2.60
2019-03-31T06:32:50.658Z,2.10
2019-03-31T06:35:55.102Z,2.10
2019-03-31T06:38:59.446Z,1.73
2019-03-31T06:42:03.857Z,2.40
2019-03-31T06:45:08.481Z,1.93
2019-03-31T06:48:12.905Z,2.57
2019-03-31T06:51:17.357Z,1.90
2019-03-31T06:54:21.688Z,2.43
2019-03-31T06:57:26.019Z,2.90
2019-03-31T07:00:30.455Z,2.83
2019-03-31T07:03:34.799Z,2.40
2019-03-31T07:06:39.130Z,2.00
2019-03-31T07:09:43.477Z,2.10
2019-03-31T07:12:47.935Z,2.60
2019-03-31T07:15:52.293Z,2.73
2019-03-31T07:18:56.683Z,2.60
2019-03-31T07:22:01.051Z,2.27
2019-03-31T07:25:07.174Z,2.33
2019-03-31T07:28:11.856Z,2.37
2019-03-31T07:31:16.222Z,2.47
2019-03-31T07:34:20.604Z,2.37
2019-03-31T07:37:25.054Z,2.63
2019-03-31T07:40:29.494Z,2.00
2019-03-31T07:43:33.939Z,2.53
2019-03-31T07:46:38.352Z,1.90
2019-03-31T07:49:42.657Z,2.40
2019-03-31T07:52:47.098Z,2.30
2019-03-31T07:55:51.485Z,1.60
2019-03-31T07:58:55.961Z,1.83
2019-03-31T08:02:00.300Z,2.00
2019-03-31T08:05:05.353Z,1.57
2019-03-31T08:08:09.711Z,1.80
2019-03-31T08:11:16.937Z,2.20
2019-03-31T08:14:20.211Z,1.73
2019-03-31T08:17:24.575Z,2.03
2019-03-31T08:20:29.049Z,1.87
2019-03-31T08:23:33.415Z,1.93
2019-03-31T08:26:37.793Z,1.70
2019-03-31T08:29:42.560Z,1.60
2019-03-31T08:32:46.925Z,1.40
2019-03-31T08:35:51.282Z,1.90
2019-03-31T08:38:55.630Z,1.77
2019-03-31T08:42:00.011Z,1.97
2019-03-31T08:45:04.639Z,2.07
2019-03-31T08:48:09.049Z,1.77
2019-03-31T08:51:13.497Z,1.80
2019-03-31T08:54:17.875Z,1.57
2019-03-31T08:57:22.270Z,1.83
2019-03-31T09:00:36.580Z,1.73
2019-03-31T09:03:40.941Z,1.33
2019-03-31T09:06:45.321Z,1.43
2019-03-31T09:09:49.780Z,1.17
2019-03-31T09:12:54.152Z,1.23
2019-03-31T09:15:58.520Z,1.80
2019-03-31T09:19:02.955Z,1.30
2019-03-31T09:22:07.328Z,1.40
2019-03-31T09:25:13.318Z,1.40
2019-03-31T09:28:17.695Z,1.90
2019-03-31T09:31:22.038Z,2.10
2019-03-31T09:34:26.427Z,1.00
2019-03-31T09:37:30.804Z,1.10
2019-03-31T09:40:35.408Z,1.67
2019-03-31T09:43:39.873Z,1.77
2019-03-31T09:46:44.261Z,1.60
2019-03-31T09:49:48.791Z,2.10
2019-03-31T09:52:53.158Z,1.73
2019-03-31T09:55:57.627Z,1.33
2019-03-31T09:59:01.999Z,1.80
2019-03-31T10:02:06.536Z,1.53
2019-03-31T10:05:11.364Z,1.73
2019-03-31T10:08:15.984Z,1.83
2019-03-31T10:11:20.363Z,1.33
2019-03-31T10:14:24.758Z,1.30
2019-03-31T10:17:29.145Z,1.60
2019-03-31T10:20:33.603Z,1.73
2019-03-31T10:23:37.968Z,1.73
2019-03-31T10:26:42.352Z,1.67
2019-03-31T10:29:46.724Z,1.77
2019-03-31T10:32:51.106Z,4.10
2019-03-31T10:35:55.618Z,2.30
2019-03-31T10:39:00.005Z,2.00
2019-03-31T10:42:04.443Z,2.00
2019-03-31T10:45:09.332Z,1.50
2019-03-31T10:48:20.491Z,2.03
2019-03-31T10:51:19.940Z,1.47
2019-03-31T10:54:24.461Z,1.43
2019-03-31T10:57:28.831Z,1.43
2019-03-31T11:00:35.027Z,1.30
2019-03-31T11:03:39.382Z,1.00
2019-03-31T11:06:58.017Z,1.27
2019-03-31T11:09:49.804Z,1.17
2019-03-31T11:12:54.165Z,1.13
2019-03-31T11:15:58.498Z,1.40
2019-03-31T11:19:02.873Z,1.10
2019-03-31T11:22:21.603Z,1.30
2019-03-31T11:25:29.178Z,1.53
2019-03-31T11:28:31.981Z,1.20
2019-03-31T11:31:36.502Z,0.87
2019-03-31T11:34:40.849Z,0.80
2019-03-31T11:37:47.222Z,0.80
2019-03-31T11:40:59.761Z,1.10
2019-03-31T11:44:04.381Z,0.87
2019-03-31T11:47:08.882Z,1.10
2019-03-31T11:50:13.908Z,1.20
2019-03-31T11:53:18.257Z,1.00
2019-03-31T11:56:22.600Z,1.07
2019-03-31T11:59:26.953Z,1.10
2019-03-31T12:02:31.380Z,1.00
2019-03-31T12:05:35.717Z,1.07
2019-03-31T12:08:40.130Z,1.10
2019-03-31T12:11:45.835Z,0.70
2019-03-31T12:15:00.287Z,0.67
2019-03-31T12:17:56.467Z,0.70
2019-03-31T12:21:00.820Z,1.03
2019-03-31T12:24:05.130Z,0.70
2019-03-31T12:27:09.572Z,2.60
2019-03-31T12:30:15.734Z,2.60
2019-03-31T12:33:20.152Z,3.80
2019-03-31T12:36:24.569Z,2.77
2019-03-31T12:39:28.908Z,0.83
2019-03-31T12:42:33.239Z,0.90
2019-03-31T12:45:37.646Z,1.30
2019-03-31T12:48:41.986Z,0.90
2019-03-31T12:51:46.314Z,1.20
2019-03-31T12:54:50.677Z,1.20
2019-03-31T12:57:55.020Z,2.10
2019-03-31T13:00:59.502Z,1.33
2019-03-31T13:04:03.923Z,0.83
2019-03-31T13:07:08.251Z,0.80
2019-03-31T13:10:14.154Z,1.20
2019-03-31T13:13:18.573Z,0.87
2019-03-31T13:16:22.917Z,0.97
2019-03-31T13:19:27.305Z,1.00
2019-03-31T13:22:31.615Z,1.03
2019-03-31T13:25:35.970Z,1.23
2019-03-31T13:28:40.297Z,1.13
2019-03-31T13:31:44.661Z,0.90
2019-03-31T13:34:49.115Z,1.00
2019-03-31T13:37:53.584Z,1.13
2019-03-31T13:40:58.017Z,1.10
2019-03-31T13:44:02.431Z,1.10
2019-03-31T13:47:06.773Z,0.80
2019-03-31T13:50:12.539Z,1.50
2019-03-31T13:53:16.884Z,0.80
2019-03-31T13:56:21.201Z,1.33
2019-03-31T13:59:25.535Z,1.47
2019-03-31T14:02:29.930Z,0.80
2019-03-31T14:05:34.538Z,1.47
2019-03-31T14:08:38.874Z,0.90
2019-03-31T14:11:43.333Z,0.97
2019-03-31T14:14:47.656Z,1.30
2019-03-31T14:17:52.613Z,1.63
2019-03-31T14:20:57.057Z,2.00
2019-03-31T14:24:01.417Z,1.17
2019-03-31T14:27:05.876Z,1.20
2019-03-31T14:30:10.836Z,1.37
2019-03-31T14:33:15.165Z,1.50
2019-03-31T14:36:19.654Z,1.40
2019-03-31T14:39:24.008Z,1.37
2019-03-31T14:42:28.487Z,1.10
2019-03-31T14:45:34.534Z,1.40
2019-03-31T14:48:38.908Z,1.23
2019-03-31T14:51:43.409Z,0.97
2019-03-31T14:54:47.756Z,1.33
2019-03-31T14:57:52.085Z,0.83
2019-03-31T15:00:56.487Z,1.30
2019-03-31T15:04:00.824Z,1.00
2019-03-31T15:07:05.160Z,1.57
2019-03-31T15:10:09.702Z,2.13
2019-03-31T15:13:14.014Z,1.60
2019-03-31T15:16:18.386Z,1.17
2019-03-31T15:19:22.757Z,1.67
2019-03-31T15:22:27.113Z,1.20
2019-03-31T15:25:31.531Z,1.13
2019-03-31T15:28:35.901Z,1.20
2019-03-31T15:31:40.233Z,1.60
2019-03-31T15:34:44.622Z,2.43
2019-03-31T15:37:48.974Z,1.57
2019-03-31T15:40:53.300Z,1.73
2019-03-31T15:43:57.701Z,1.20
2019-03-31T15:47:02.067Z,1.40
2019-03-31T15:50:07.183Z,1.47
2019-03-31T15:53:11.514Z,1.27
2019-03-31T15:56:15.936Z,1.17
2019-03-31T15:59:20.328Z,1.17
2019-03-31T16:02:26.266Z,1.53
2019-03-31T16:05:30.604Z,1.30
2019-03-31T16:08:34.433Z,1.40
2019-03-31T16:11:38.232Z,1.37
2019-03-31T16:14:42.108Z,2.00
2019-03-31T16:17:45.926Z,1.63
2019-03-31T16:20:49.735Z,1.67
2019-03-31T16:23:53.566Z,2.20
2019-03-31T16:26:57.367Z,2.20
2019-03-31T16:30:01.214Z,2.30
2019-03-31T16:33:07.036Z,2.00
2019-03-31T16:36:10.702Z,1.30
2019-03-31T16:39:14.610Z,1.63
2019-03-31T16:42:18.411Z,1.13
2019-03-31T16:45:22.302Z,1.30
2019-03-31T16:48:26.076Z,0.90
2019-03-31T16:51:29.989Z,1.10
2019-03-31T16:54:33.784Z,1.20
2019-03-31T16:57:37.608Z,1.23
2019-03-31T17:00:41.419Z,1.43
2019-03-31T17:03:45.195Z,2.00
2019-03-31T17:06:49.010Z,1.60
2019-03-31T17:09:52.809Z,1.30
2019-03-31T17:12:56.616Z,1.30
2019-03-31T17:16:00.444Z,1.60
2019-03-31T17:19:04.310Z,2.30
2019-03-31T17:22:08.224Z,1.50
2019-03-31T17:25:12.563Z,1.57
2019-03-31T17:28:16.402Z,2.10
2019-03-31T17:31:20.275Z,1.67
2019-03-31T17:34:24.161Z,1.57
2019-03-31T17:37:27.969Z,1.10
2019-03-31T17:40:31.877Z,1.70
2019-03-31T17:43:35.705Z,4.07
2019-03-31T17:46:39.658Z,8.17
2019-03-31T17:49:43.574Z,4.23
2019-03-31T17:52:47.366Z,5.07
2019-03-31T17:55:51.316Z,4.63
2019-03-31T17:58:55.197Z,11.37
2019-03-31T18:01:59.035Z,11.37
2019-03-31T18:05:02.863Z,8.20
2019-03-31T18:08:06.632Z,4.10
2019-03-31T18:11:10.597Z,4.10
2019-03-31T18:14:14.384Z,2.60
2019-03-31T18:17:18.221Z,2.90
2019-03-31T18:20:22.044Z,2.10
2019-03-31T18:23:25.867Z,1.93
2019-03-31T18:26:29.755Z,3.30
2019-03-31T18:29:33.571Z,2.23
2019-03-31T18:32:37.371Z,1.50
2019-03-31T18:35:41.224Z,1.13
2019-03-31T18:38:45.145Z,1.13
2019-03-31T18:41:48.957Z,1.83
2019-03-31T18:44:52.799Z,1.33
2019-03-31T18:47:56.611Z,1.70
2019-03-31T18:51:00.399Z,1.23
2019-03-31T18:54:26.353Z,1.10
2019-03-31T18:57:41.210Z,1.20
2019-03-31T19:00:54.529Z,1.60
2019-03-31T19:04:07.158Z,1.40
2019-03-31T19:07:25.014Z,1.17
2019-03-31T19:10:49.942Z,1.67
2019-03-31T19:14:05.187Z,1.20
2019-03-31T19:17:27.130Z,1.40
2019-03-31T19:21:11.114Z,3.40
2019-03-31T19:24:24.488Z,3.03
2019-03-31T19:28:02.773Z,1.90
2019-03-31T19:31:24.648Z,2.57
2019-03-31T19:34:48.030Z,2.03
2019-03-31T19:38:13.854Z,1.83
2019-03-31T19:41:29.723Z,1.73
2019-03-31T19:44:43.365Z,1.53
2019-03-31T19:48:21.563Z,1.53
2019-03-31T19:51:49.039Z,1.60
2019-03-31T19:55:14.676Z,1.40
2019-03-31T19:58:46.882Z,1.33
2019-03-31T20:02:08.152Z,1.60
2019-03-31T20:05:32.625Z,1.40
2019-03-31T20:08:55.562Z,1.97
2019-03-31T20:12:09.129Z,1.57
2019-03-31T20:15:27.913Z,1.43
2019-03-31T20:18:48.919Z,1.33
2019-03-31T20:22:02.139Z,1.10
2019-03-31T20:25:16.797Z,1.40
2019-03-31T20:28:51.876Z,1.30
2019-03-31T20:32:20.687Z,1.33
2019-03-31T20:35:55.913Z,1.43
2019-03-31T20:39:17.351Z,1.53
2019-03-31T20:42:46.072Z,1.30
2019-03-31T20:45:49.873Z,1.20
2019-03-31T20:48:53.769Z,0.90
2019-03-31T20:51:57.572Z,1.80
2019-03-31T20:55:15.316Z,1.10
2019-03-31T20:58:06.923Z,1.30
2019-03-31T21:01:10.896Z,1.10
2019-03-31T21:04:14.727Z,1.13
2019-03-31T21:07:18.524Z,1.50
2019-03-31T21:10:22.332Z,1.00
2019-03-31T21:13:26.173Z,1.30
2019-03-31T21:16:29.996Z,1.17
2019-03-31T21:19:33.788Z,1.10
2019-03-31T21:22:37.615Z,1.10
2019-03-31T21:25:41.455Z,1.50
2019-03-31T21:28:45.298Z,1.37
2019-03-31T21:31:49.105Z,1.70
2019-03-31T21:34:52.963Z,1.10
2019-03-31T21:37:56.806Z,1.17
2019-03-31T21:41:00.613Z,1.20
2019-03-31T21:44:04.544Z,0.73
2019-03-31T21:47:08.327Z,1.43
2019-03-31T21:50:12.285Z,1.23
2019-03-31T21:53:16.103Z,1.40
2019-03-31T21:56:19.875Z,1.30
2019-03-31T21:59:23.845Z,1.03
2019-03-31T22:02:27.771Z,1.10
2019-03-31T22:05:31.686Z,1.50
2019-03-31T22:08:35.581Z,1.67
2019-03-31T22:11:39.384Z,1.50
2019-03-31T22:14:43.178Z,1.63
2019-03-31T22:17:46.995Z,1.57
2019-03-31T22:20:50.837Z,1.23
2019-03-31T22:23:58.116Z,1.83
2019-03-31T22:27:00.193Z,1.63
2019-03-31T22:30:04.413Z,0.90
2019-03-31T22:33:08.222Z,1.40
2019-03-31T22:36:21.175Z,1.33
2019-03-31T22:39:25.046Z,1.27
2019-03-31T22:42:28.860Z,1.80
2019-03-31T22:45:32.745Z,1.63
2019-03-31T22:48:36.566Z,1.30
2019-03-31T22:51:40.375Z,1.60
2019-03-31T22:54:44.208Z,1.33
2019-03-31T22:57:48.168Z,1.40
2019-03-31T23:00:52.902Z,1.70
2019-03-31T23:03:56.740Z,1.37
2019-03-31T23:07:00.574Z,1.40
2019-03-31T23:10:04.582Z,1.43
2019-03-31T23:13:08.393Z,1.70
2019-03-31T23:16:12.364Z,1.60
2019-03-31T23:19:16.187Z,1.50
2019-03-31T23:22:20.027Z,1.53
2019-03-31T23:25:23.831Z,1.30
2019-03-31T23:28:27.649Z,1.60
2019-03-31T23:31:31.444Z,1.00
2019-03-31T23:34:35.274Z,1.37
2019-03-31T23:37:39.112Z,1.23
2019-03-31T23:40:42.950Z,1.60
2019-03-31T23:43:46.747Z,1.50
2019-03-31T23:46:50.560Z,1.83
2019-03-31T23:49:54.346Z,1.23
2019-03-31T23:52:58.188Z,1.50
2019-03-31T23:56:01.973Z,1.83
2019-03-31T23:59:05.772Z,1.57
